sensor_id;sensor_type;location;lat;lon;timestamp;temperature;humidity
3037;DHT22;1528;52.550;13.408;2022-12-07T00:02:43;4.40;43.30
3037;DHT22;1528;52.550;13.408;2022-12-07T00:05:30;4.60;42.80
3037;DHT22;1528;52.550;13.408;2022-12-07T00:08:15;4.70;43.50
3037;DHT22;1528;52.550;13.408;2022-12-07T00:11:02;4.70;42.20
3037;DHT22;1528;52.550;13.408;2022-12-07T00:13:51;4.60;41.70
3037;DHT22;1528;52.550;13.408;2022-12-07T00:16:36;4.60;41.70
3037;DHT22;1528;52.550;13.408;2022-12-07T00:19:22;4.60;42.20
3037;DHT22;1528;52.550;13.408;2022-12-07T00:22:08;4.60;42.00
3037;DHT22;1528;52.550;13.408;2022-12-07T00:24:53;4.50;43.30
3037;DHT22;1528;52.550;13.408;2022-12-07T00:27:39;4.50;42.90
3037;DHT22;1528;52.550;13.408;2022-12-07T00:30:26;4.40;42.80
3037;DHT22;1528;52.550;13.408;2022-12-07T00:33:11;4.50;41.40
3037;DHT22;1528;52.550;13.408;2022-12-07T00:35:57;4.50;42.00
3037;DHT22;1528;52.550;13.408;2022-12-07T00:38:43;4.40;41.60
3037;DHT22;1528;52.550;13.408;2022-12-07T00:41:29;4.30;41.70
3037;DHT22;1528;52.550;13.408;2022-12-07T00:44:14;4.40;40.50
3037;DHT22;1528;52.550;13.408;2022-12-07T00:47:01;4.60;39.90
3037;DHT22;1528;52.550;13.408;2022-12-07T00:49:46;4.50;39.60
3037;DHT22;1528;52.550;13.408;2022-12-07T00:52:32;4.30;40.20
3037;DHT22;1528;52.550;13.408;2022-12-07T00:55:17;4.40;39.50
3037;DHT22;1528;52.550;13.408;2022-12-07T00:58:03;4.40;39.00
3037;DHT22;1528;52.550;13.408;2022-12-07T01:00:49;4.30;39.00
3037;DHT22;1528;52.550;13.408;2022-12-07T01:03:37;4.40;38.80
3037;DHT22;1528;52.550;13.408;2022-12-07T01:06:23;4.10;39.00
3037;DHT22;1528;52.550;13.408;2022-12-07T01:09:09;4.00;39.50
3037;DHT22;1528;52.550;13.408;2022-12-07T01:11:55;4.10;38.90
3037;DHT22;1528;52.550;13.408;2022-12-07T01:14:41;4.20;38.90
3037;DHT22;1528;52.550;13.408;2022-12-07T01:17:28;4.20;38.40
3037;DHT22;1528;52.550;13.408;2022-12-07T01:20:15;4.10;38.60
3037;DHT22;1528;52.550;13.408;2022-12-07T01:23:01;4.20;38.40
3037;DHT22;1528;52.550;13.408;2022-12-07T01:25:54;4.20;38.00
3037;DHT22;1528;52.550;13.408;2022-12-07T01:28:39;4.30;37.90
3037;DHT22;1528;52.550;13.408;2022-12-07T01:31:26;4.40;37.00
3037;DHT22;1528;52.550;13.408;2022-12-07T01:34:12;4.40;36.80
3037;DHT22;1528;52.550;13.408;2022-12-07T01:36:59;4.30;37.20
3037;DHT22;1528;52.550;13.408;2022-12-07T01:39:48;4.10;37.00
3037;DHT22;1528;52.550;13.408;2022-12-07T01:42:34;4.10;37.50
3037;DHT22;1528;52.550;13.408;2022-12-07T01:45:43;4.10;37.00
3037;DHT22;1528;52.550;13.408;2022-12-07T01:48:33;4.10;37.10
3037;DHT22;1528;52.550;13.408;2022-12-07T01:51:19;4.00;37.10
3037;DHT22;1528;52.550;13.408;2022-12-07T01:54:06;4.10;36.70
3037;DHT22;1528;52.550;13.408;2022-12-07T01:56:55;3.80;37.30
3037;DHT22;1528;52.550;13.408;2022-12-07T01:59:43;4.10;36.70
3037;DHT22;1528;52.550;13.408;2022-12-07T02:02:32;4.10;36.90
3037;DHT22;1528;52.550;13.408;2022-12-07T02:05:19;4.10;36.30
3037;DHT22;1528;52.550;13.408;2022-12-07T02:08:05;4.10;36.50
3037;DHT22;1528;52.550;13.408;2022-12-07T02:10:52;4.20;35.90
3037;DHT22;1528;52.550;13.408;2022-12-07T02:13:39;4.40;35.80
3037;DHT22;1528;52.550;13.408;2022-12-07T02:16:32;4.20;36.00
3037;DHT22;1528;52.550;13.408;2022-12-07T02:19:57;4.30;35.40
3037;DHT22;1528;52.550;13.408;2022-12-07T02:23:10;4.30;34.80
3037;DHT22;1528;52.550;13.408;2022-12-07T02:26:26;4.00;34.90
3037;DHT22;1528;52.550;13.408;2022-12-07T02:29:22;4.10;35.10
3037;DHT22;1528;52.550;13.408;2022-12-07T02:32:12;4.10;35.20
3037;DHT22;1528;52.550;13.408;2022-12-07T02:35:04;4.00;35.40
3037;DHT22;1528;52.550;13.408;2022-12-07T02:38:01;3.90;35.80
3037;DHT22;1528;52.550;13.408;2022-12-07T02:40:51;4.10;35.80
3037;DHT22;1528;52.550;13.408;2022-12-07T02:43:41;4.20;35.90
3037;DHT22;1528;52.550;13.408;2022-12-07T02:46:31;4.00;36.10
3037;DHT22;1528;52.550;13.408;2022-12-07T02:49:18;4.00;36.30
3037;DHT22;1528;52.550;13.408;2022-12-07T02:52:04;4.00;36.30
3037;DHT22;1528;52.550;13.408;2022-12-07T02:54:49;4.10;36.50
3037;DHT22;1528;52.550;13.408;2022-12-07T02:57:52;4.10;36.40
3037;DHT22;1528;52.550;13.408;2022-12-07T03:00:46;4.10;36.40
3037;DHT22;1528;52.550;13.408;2022-12-07T03:03:37;4.00;36.90
3037;DHT22;1528;52.550;13.408;2022-12-07T03:06:28;4.10;37.00
3037;DHT22;1528;52.550;13.408;2022-12-07T03:09:20;4.10;36.90
3037;DHT22;1528;52.550;13.408;2022-12-07T03:12:12;4.00;38.30
3037;DHT22;1528;52.550;13.408;2022-12-07T03:15:02;4.00;37.90
3037;DHT22;1528;52.550;13.408;2022-12-07T03:17:51;4.00;37.70
3037;DHT22;1528;52.550;13.408;2022-12-07T03:20:41;4.00;38.30
3037;DHT22;1528;52.550;13.408;2022-12-07T03:23:28;4.10;37.90
3037;DHT22;1528;52.550;13.408;2022-12-07T03:26:16;4.10;38.70
3037;DHT22;1528;52.550;13.408;2022-12-07T03:29:07;4.30;37.30
3037;DHT22;1528;52.550;13.408;2022-12-07T03:31:56;4.20;38.10
3037;DHT22;1528;52.550;13.408;2022-12-07T03:34:46;4.30;38.10
3037;DHT22;1528;52.550;13.408;2022-12-07T03:37:40;4.40;38.10
3037;DHT22;1528;52.550;13.408;2022-12-07T03:40:32;4.40;38.40
3037;DHT22;1528;52.550;13.408;2022-12-07T03:43:19;4.40;38.60
3037;DHT22;1528;52.550;13.408;2022-12-07T03:46:12;4.40;38.80
3037;DHT22;1528;52.550;13.408;2022-12-07T03:49:07;4.30;39.60
3037;DHT22;1528;52.550;13.408;2022-12-07T03:51:57;4.40;39.00
3037;DHT22;1528;52.550;13.408;2022-12-07T03:54:49;4.60;38.40
3037;DHT22;1528;52.550;13.408;2022-12-07T03:57:38;4.70;38.30
3037;DHT22;1528;52.550;13.408;2022-12-07T04:00:25;4.70;39.10
3037;DHT22;1528;52.550;13.408;2022-12-07T04:03:11;4.80;38.50
3037;DHT22;1528;52.550;13.408;2022-12-07T04:05:56;4.70;42.30
3037;DHT22;1528;52.550;13.408;2022-12-07T04:08:43;4.70;40.50
3037;DHT22;1528;52.550;13.408;2022-12-07T04:11:30;4.70;40.80
3037;DHT22;1528;52.550;13.408;2022-12-07T04:14:15;4.50;40.00
3037;DHT22;1528;52.550;13.408;2022-12-07T04:17:03;4.60;41.70
3037;DHT22;1528;52.550;13.408;2022-12-07T04:19:48;4.60;42.20
3037;DHT22;1528;52.550;13.408;2022-12-07T04:22:34;4.60;41.20
3037;DHT22;1528;52.550;13.408;2022-12-07T04:25:20;4.70;40.20
3037;DHT22;1528;52.550;13.408;2022-12-07T04:28:07;4.50;41.10
3037;DHT22;1528;52.550;13.408;2022-12-07T04:30:52;4.70;41.70
3037;DHT22;1528;52.550;13.408;2022-12-07T04:33:38;4.50;42.90
3037;DHT22;1528;52.550;13.408;2022-12-07T04:36:24;4.50;43.10
3037;DHT22;1528;52.550;13.408;2022-12-07T04:39:17;4.60;43.50
3037;DHT22;1528;52.550;13.408;2022-12-07T04:42:03;4.60;42.70
3037;DHT22;1528;52.550;13.408;2022-12-07T04:44:50;4.50;43.80
3037;DHT22;1528;52.550;13.408;2022-12-07T04:47:36;4.60;44.20
3037;DHT22;1528;52.550;13.408;2022-12-07T04:50:21;4.70;42.90
3037;DHT22;1528;52.550;13.408;2022-12-07T04:53:07;4.60;44.60
3037;DHT22;1528;52.550;13.408;2022-12-07T04:55:52;4.60;42.60
3037;DHT22;1528;52.550;13.408;2022-12-07T04:58:38;4.60;42.10
3037;DHT22;1528;52.550;13.408;2022-12-07T05:01:25;4.60;41.90
3037;DHT22;1528;52.550;13.408;2022-12-07T05:04:10;4.80;41.50
3037;DHT22;1528;52.550;13.408;2022-12-07T05:06:56;4.80;42.60
3037;DHT22;1528;52.550;13.408;2022-12-07T05:09:41;4.90;41.20
3037;DHT22;1528;52.550;13.408;2022-12-07T05:12:27;4.80;41.20
3037;DHT22;1528;52.550;13.408;2022-12-07T05:15:13;4.80;41.80
3037;DHT22;1528;52.550;13.408;2022-12-07T05:18:00;4.70;42.00
3037;DHT22;1528;52.550;13.408;2022-12-07T05:20:45;4.70;42.20
3037;DHT22;1528;52.550;13.408;2022-12-07T05:23:31;4.50;43.10
3037;DHT22;1528;52.550;13.408;2022-12-07T05:26:17;4.70;42.60
3037;DHT22;1528;52.550;13.408;2022-12-07T05:29:02;4.60;43.40
3037;DHT22;1528;52.550;13.408;2022-12-07T05:31:48;4.60;42.90
3037;DHT22;1528;52.550;13.408;2022-12-07T05:34:35;4.70;42.90
3037;DHT22;1528;52.550;13.408;2022-12-07T05:37:20;4.70;43.20
3037;DHT22;1528;52.550;13.408;2022-12-07T05:40:07;4.60;43.70
3037;DHT22;1528;52.550;13.408;2022-12-07T05:42:53;4.50;44.00
3037;DHT22;1528;52.550;13.408;2022-12-07T05:45:39;4.50;43.70
3037;DHT22;1528;52.550;13.408;2022-12-07T05:48:26;4.50;44.10
3037;DHT22;1528;52.550;13.408;2022-12-07T05:51:12;4.60;43.90
3037;DHT22;1528;52.550;13.408;2022-12-07T05:53:58;4.70;44.20
3037;DHT22;1528;52.550;13.408;2022-12-07T05:56:43;4.70;43.80
3037;DHT22;1528;52.550;13.408;2022-12-07T05:59:29;4.90;43.60
3037;DHT22;1528;52.550;13.408;2022-12-07T06:02:15;4.80;43.70
3037;DHT22;1528;52.550;13.408;2022-12-07T06:05:00;4.90;43.90
3037;DHT22;1528;52.550;13.408;2022-12-07T06:07:47;4.90;44.20
3037;DHT22;1528;52.550;13.408;2022-12-07T06:10:33;5.00;43.70
3037;DHT22;1528;52.550;13.408;2022-12-07T06:13:18;5.10;43.40
3037;DHT22;1528;52.550;13.408;2022-12-07T06:16:04;5.00;47.30
3037;DHT22;1528;52.550;13.408;2022-12-07T06:18:50;5.00;51.70
3037;DHT22;1528;52.550;13.408;2022-12-07T06:21:36;4.90;57.50
3037;DHT22;1528;52.550;13.408;2022-12-07T06:24:23;4.70;60.10
3037;DHT22;1528;52.550;13.408;2022-12-07T06:27:08;4.50;59.60
3037;DHT22;1528;52.550;13.408;2022-12-07T06:29:54;4.50;63.50
3037;DHT22;1528;52.550;13.408;2022-12-07T06:32:40;4.30;67.00
3037;DHT22;1528;52.550;13.408;2022-12-07T06:35:25;4.20;75.10
3037;DHT22;1528;52.550;13.408;2022-12-07T06:38:10;4.00;75.70
3037;DHT22;1528;52.550;13.408;2022-12-07T06:40:57;4.00;75.10
3037;DHT22;1528;52.550;13.408;2022-12-07T06:43:43;4.00;74.60
3037;DHT22;1528;52.550;13.408;2022-12-07T06:46:29;4.00;71.20
3037;DHT22;1528;52.550;13.408;2022-12-07T06:49:15;3.90;72.20
3037;DHT22;1528;52.550;13.408;2022-12-07T06:52:00;4.00;74.10
3037;DHT22;1528;52.550;13.408;2022-12-07T06:54:46;4.10;73.80
3037;DHT22;1528;52.550;13.408;2022-12-07T06:57:33;4.20;74.20
3037;DHT22;1528;52.550;13.408;2022-12-07T07:00:19;4.20;72.60
3037;DHT22;1528;52.550;13.408;2022-12-07T07:03:05;4.30;70.90
3037;DHT22;1528;52.550;13.408;2022-12-07T07:05:50;4.30;66.10
3037;DHT22;1528;52.550;13.408;2022-12-07T07:08:37;4.20;63.00
3037;DHT22;1528;52.550;13.408;2022-12-07T07:11:22;4.40;64.70
3037;DHT22;1528;52.550;13.408;2022-12-07T07:14:09;4.50;64.60
3037;DHT22;1528;52.550;13.408;2022-12-07T07:16:55;4.50;61.00
3037;DHT22;1528;52.550;13.408;2022-12-07T07:19:40;4.40;59.40
3037;DHT22;1528;52.550;13.408;2022-12-07T07:22:25;4.70;60.20
3037;DHT22;1528;52.550;13.408;2022-12-07T07:25:11;4.70;58.00
3037;DHT22;1528;52.550;13.408;2022-12-07T07:27:56;4.80;57.80
3037;DHT22;1528;52.550;13.408;2022-12-07T07:30:43;4.70;57.00
3037;DHT22;1528;52.550;13.408;2022-12-07T07:33:28;4.80;56.20
3037;DHT22;1528;52.550;13.408;2022-12-07T07:36:14;4.70;55.00
3037;DHT22;1528;52.550;13.408;2022-12-07T07:38:59;4.70;55.50
3037;DHT22;1528;52.550;13.408;2022-12-07T07:41:46;4.70;54.30
3037;DHT22;1528;52.550;13.408;2022-12-07T07:44:31;4.70;53.80
3037;DHT22;1528;52.550;13.408;2022-12-07T07:47:18;4.70;52.80
3037;DHT22;1528;52.550;13.408;2022-12-07T07:50:05;4.70;52.10
3037;DHT22;1528;52.550;13.408;2022-12-07T07:52:51;4.80;51.00
3037;DHT22;1528;52.550;13.408;2022-12-07T07:55:36;4.90;50.50
3037;DHT22;1528;52.550;13.408;2022-12-07T07:58:22;5.00;49.50
3037;DHT22;1528;52.550;13.408;2022-12-07T08:01:07;4.90;51.20
3037;DHT22;1528;52.550;13.408;2022-12-07T08:03:54;4.90;50.00
3037;DHT22;1528;52.550;13.408;2022-12-07T08:06:39;5.00;49.40
3037;DHT22;1528;52.550;13.408;2022-12-07T08:09:25;5.00;48.50
3037;DHT22;1528;52.550;13.408;2022-12-07T08:12:11;5.00;47.70
3037;DHT22;1528;52.550;13.408;2022-12-07T08:14:57;4.90;47.50
3037;DHT22;1528;52.550;13.408;2022-12-07T08:17:42;5.00;48.00
3037;DHT22;1528;52.550;13.408;2022-12-07T08:20:29;5.00;48.10
3037;DHT22;1528;52.550;13.408;2022-12-07T08:23:14;5.10;47.30
3037;DHT22;1528;52.550;13.408;2022-12-07T08:26:00;5.20;46.30
3037;DHT22;1528;52.550;13.408;2022-12-07T08:28:46;5.30;46.30
3037;DHT22;1528;52.550;13.408;2022-12-07T08:31:31;5.30;45.60
3037;DHT22;1528;52.550;13.408;2022-12-07T08:34:17;5.40;45.70
3037;DHT22;1528;52.550;13.408;2022-12-07T08:37:04;5.30;45.00
3037;DHT22;1528;52.550;13.408;2022-12-07T08:39:49;5.40;44.40
3037;DHT22;1528;52.550;13.408;2022-12-07T08:42:35;5.30;45.00
3037;DHT22;1528;52.550;13.408;2022-12-07T08:45:24;5.40;43.80
3037;DHT22;1528;52.550;13.408;2022-12-07T08:48:13;5.40;43.50
3037;DHT22;1528;52.550;13.408;2022-12-07T08:50:58;5.30;43.10
3037;DHT22;1528;52.550;13.408;2022-12-07T08:53:47;5.30;42.10
3037;DHT22;1528;52.550;13.408;2022-12-07T08:56:33;5.30;41.90
3037;DHT22;1528;52.550;13.408;2022-12-07T08:59:20;5.20;42.00
3037;DHT22;1528;52.550;13.408;2022-12-07T09:02:06;5.40;41.10
3037;DHT22;1528;52.550;13.408;2022-12-07T09:04:52;5.30;41.40
3037;DHT22;1528;52.550;13.408;2022-12-07T09:07:38;5.40;40.10
3037;DHT22;1528;52.550;13.408;2022-12-07T09:10:25;5.40;39.20
3037;DHT22;1528;52.550;13.408;2022-12-07T09:13:11;5.30;40.10
3037;DHT22;1528;52.550;13.408;2022-12-07T09:15:56;5.50;39.30
3037;DHT22;1528;52.550;13.408;2022-12-07T09:18:42;5.60;38.60
3037;DHT22;1528;52.550;13.408;2022-12-07T09:21:28;5.50;38.10
3037;DHT22;1528;52.550;13.408;2022-12-07T09:24:13;5.40;36.80
3037;DHT22;1528;52.550;13.408;2022-12-07T09:27:00;5.30;36.70
3037;DHT22;1528;52.550;13.408;2022-12-07T09:29:46;5.10;37.80
3037;DHT22;1528;52.550;13.408;2022-12-07T09:32:31;5.10;36.60
3037;DHT22;1528;52.550;13.408;2022-12-07T09:35:17;5.10;34.90
3037;DHT22;1528;52.550;13.408;2022-12-07T09:38:02;5.10;35.60
3037;DHT22;1528;52.550;13.408;2022-12-07T09:40:48;5.20;34.70
3037;DHT22;1528;52.550;13.408;2022-12-07T09:43:36;5.20;34.90
3037;DHT22;1528;52.550;13.408;2022-12-07T09:46:24;5.20;34.90
3037;DHT22;1528;52.550;13.408;2022-12-07T09:49:12;5.20;34.50
3037;DHT22;1528;52.550;13.408;2022-12-07T09:52:02;5.30;34.50
3037;DHT22;1528;52.550;13.408;2022-12-07T09:54:49;5.30;33.90
3037;DHT22;1528;52.550;13.408;2022-12-07T09:57:35;5.20;34.10
3037;DHT22;1528;52.550;13.408;2022-12-07T10:00:23;5.30;34.40
3037;DHT22;1528;52.550;13.408;2022-12-07T10:03:11;5.30;34.30
3037;DHT22;1528;52.550;13.408;2022-12-07T10:05:57;5.20;33.70
3037;DHT22;1528;52.550;13.408;2022-12-07T10:08:42;5.20;34.00
3037;DHT22;1528;52.550;13.408;2022-12-07T10:11:27;5.20;34.10
3037;DHT22;1528;52.550;13.408;2022-12-07T10:14:13;5.00;33.20
3037;DHT22;1528;52.550;13.408;2022-12-07T10:17:00;5.00;34.80
3037;DHT22;1528;52.550;13.408;2022-12-07T10:19:46;5.10;33.80
3037;DHT22;1528;52.550;13.408;2022-12-07T10:22:31;5.10;33.50
3037;DHT22;1528;52.550;13.408;2022-12-07T10:25:19;5.10;34.00
3037;DHT22;1528;52.550;13.408;2022-12-07T10:28:14;5.10;33.90
3037;DHT22;1528;52.550;13.408;2022-12-07T10:31:15;5.00;33.70
3037;DHT22;1528;52.550;13.408;2022-12-07T10:34:03;5.20;33.70
3037;DHT22;1528;52.550;13.408;2022-12-07T10:36:48;5.40;33.00
3037;DHT22;1528;52.550;13.408;2022-12-07T10:39:41;5.50;32.70
3037;DHT22;1528;52.550;13.408;2022-12-07T10:42:28;5.50;31.90
3037;DHT22;1528;52.550;13.408;2022-12-07T10:45:17;5.60;32.70
3037;DHT22;1528;52.550;13.408;2022-12-07T10:48:07;5.60;32.60
3037;DHT22;1528;52.550;13.408;2022-12-07T10:51:08;5.50;32.60
3037;DHT22;1528;52.550;13.408;2022-12-07T10:54:03;5.50;33.80
3037;DHT22;1528;52.550;13.408;2022-12-07T10:57:19;5.40;33.70
3037;DHT22;1528;52.550;13.408;2022-12-07T11:00:19;5.40;34.00
3037;DHT22;1528;52.550;13.408;2022-12-07T11:03:25;5.30;34.30
3037;DHT22;1528;52.550;13.408;2022-12-07T11:06:24;5.30;34.60
3037;DHT22;1528;52.550;13.408;2022-12-07T11:09:44;5.40;34.80
3037;DHT22;1528;52.550;13.408;2022-12-07T11:12:43;5.60;33.80
3037;DHT22;1528;52.550;13.408;2022-12-07T11:15:40;5.50;34.10
3037;DHT22;1528;52.550;13.408;2022-12-07T11:18:29;5.50;35.00
3037;DHT22;1528;52.550;13.408;2022-12-07T11:21:23;5.30;36.00
3037;DHT22;1528;52.550;13.408;2022-12-07T11:24:18;5.50;35.10
3037;DHT22;1528;52.550;13.408;2022-12-07T11:27:13;5.70;35.10
3037;DHT22;1528;52.550;13.408;2022-12-07T11:30:10;5.70;33.90
3037;DHT22;1528;52.550;13.408;2022-12-07T11:33:05;5.70;34.80
3037;DHT22;1528;52.550;13.408;2022-12-07T11:36:02;5.80;33.90
3037;DHT22;1528;52.550;13.408;2022-12-07T11:38:53;5.80;33.50
3037;DHT22;1528;52.550;13.408;2022-12-07T11:41:41;5.70;33.80
3037;DHT22;1528;52.550;13.408;2022-12-07T11:44:32;5.70;34.20
3037;DHT22;1528;52.550;13.408;2022-12-07T11:47:25;5.60;34.70
3037;DHT22;1528;52.550;13.408;2022-12-07T11:50:25;5.50;35.70
3037;DHT22;1528;52.550;13.408;2022-12-07T11:53:17;5.60;35.60
3037;DHT22;1528;52.550;13.408;2022-12-07T11:56:09;5.90;34.60
3037;DHT22;1528;52.550;13.408;2022-12-07T11:59:00;5.80;34.50
3037;DHT22;1528;52.550;13.408;2022-12-07T12:01:55;5.70;34.80
3037;DHT22;1528;52.550;13.408;2022-12-07T12:04:50;5.80;35.10
3037;DHT22;1528;52.550;13.408;2022-12-07T12:07:36;5.70;35.00
3037;DHT22;1528;52.550;13.408;2022-12-07T12:10:30;5.90;35.10
3037;DHT22;1528;52.550;13.408;2022-12-07T12:13:47;5.90;34.30
3037;DHT22;1528;52.550;13.408;2022-12-07T12:17:06;5.80;34.80
3037;DHT22;1528;52.550;13.408;2022-12-07T12:20:01;5.70;34.60
3037;DHT22;1528;52.550;13.408;2022-12-07T12:22:51;5.90;34.90
3037;DHT22;1528;52.550;13.408;2022-12-07T12:25:41;6.00;35.10
3037;DHT22;1528;52.550;13.408;2022-12-07T12:28:32;6.20;33.90
3037;DHT22;1528;52.550;13.408;2022-12-07T12:31:35;6.10;34.30
3037;DHT22;1528;52.550;13.408;2022-12-07T12:34:38;5.90;34.40
3037;DHT22;1528;52.550;13.408;2022-12-07T12:37:40;6.00;34.70
3037;DHT22;1528;52.550;13.408;2022-12-07T12:40:40;5.90;34.90
3037;DHT22;1528;52.550;13.408;2022-12-07T12:43:47;6.00;34.40
3037;DHT22;1528;52.550;13.408;2022-12-07T12:46:49;6.10;34.10
3037;DHT22;1528;52.550;13.408;2022-12-07T12:49:37;6.00;34.70
3037;DHT22;1528;52.550;13.408;2022-12-07T12:56:14;6.00;34.90
3037;DHT22;1528;52.550;13.408;2022-12-07T12:59:23;5.90;35.70
3037;DHT22;1528;52.550;13.408;2022-12-07T13:02:20;6.00;34.30
3037;DHT22;1528;52.550;13.408;2022-12-07T13:05:17;5.90;34.80
3037;DHT22;1528;52.550;13.408;2022-12-07T13:08:05;6.00;34.70
3037;DHT22;1528;52.550;13.408;2022-12-07T13:11:16;5.90;34.70
3037;DHT22;1528;52.550;13.408;2022-12-07T13:14:51;6.00;34.60
3037;DHT22;1528;52.550;13.408;2022-12-07T13:17:58;6.00;34.90
3037;DHT22;1528;52.550;13.408;2022-12-07T13:20:50;5.90;34.60
3037;DHT22;1528;52.550;13.408;2022-12-07T13:23:38;5.90;35.00
3037;DHT22;1528;52.550;13.408;2022-12-07T13:26:27;6.10;34.60
3037;DHT22;1528;52.550;13.408;2022-12-07T13:29:20;6.10;34.40
3037;DHT22;1528;52.550;13.408;2022-12-07T13:32:24;6.00;35.30
3037;DHT22;1528;52.550;13.408;2022-12-07T13:35:30;6.00;34.90
3037;DHT22;1528;52.550;13.408;2022-12-07T13:38:23;6.00;34.80
3037;DHT22;1528;52.550;13.408;2022-12-07T13:41:14;6.00;34.50
3037;DHT22;1528;52.550;13.408;2022-12-07T13:44:02;6.10;34.40
3037;DHT22;1528;52.550;13.408;2022-12-07T13:47:00;6.10;34.30
3037;DHT22;1528;52.550;13.408;2022-12-07T13:49:50;6.10;34.30
3037;DHT22;1528;52.550;13.408;2022-12-07T13:52:43;6.10;34.10
3037;DHT22;1528;52.550;13.408;2022-12-07T13:55:29;6.10;34.30
3037;DHT22;1528;52.550;13.408;2022-12-07T13:58:15;6.20;33.30
3037;DHT22;1528;52.550;13.408;2022-12-07T14:01:01;6.20;32.80
3037;DHT22;1528;52.550;13.408;2022-12-07T14:03:46;6.20;32.70
3037;DHT22;1528;52.550;13.408;2022-12-07T14:06:33;6.10;32.40
3037;DHT22;1528;52.550;13.408;2022-12-07T14:09:20;6.10;32.80
3037;DHT22;1528;52.550;13.408;2022-12-07T14:12:06;6.20;33.40
3037;DHT22;1528;52.550;13.408;2022-12-07T14:14:52;6.30;32.70
3037;DHT22;1528;52.550;13.408;2022-12-07T14:17:49;6.10;33.00
3037;DHT22;1528;52.550;13.408;2022-12-07T14:20:37;6.00;33.00
3037;DHT22;1528;52.550;13.408;2022-12-07T14:23:26;6.00;32.80
3037;DHT22;1528;52.550;13.408;2022-12-07T14:26:14;6.00;32.90
3037;DHT22;1528;52.550;13.408;2022-12-07T14:29:31;6.00;33.20
3037;DHT22;1528;52.550;13.408;2022-12-07T14:32:23;5.80;33.90
3037;DHT22;1528;52.550;13.408;2022-12-07T14:35:14;5.80;34.70
3037;DHT22;1528;52.550;13.408;2022-12-07T14:37:59;5.70;34.80
3037;DHT22;1528;52.550;13.408;2022-12-07T14:40:46;5.70;34.70
3037;DHT22;1528;52.550;13.408;2022-12-07T14:43:32;5.50;35.60
3037;DHT22;1528;52.550;13.408;2022-12-07T14:46:17;5.70;35.60
3037;DHT22;1528;52.550;13.408;2022-12-07T14:49:03;5.70;35.80
3037;DHT22;1528;52.550;13.408;2022-12-07T14:51:49;5.60;35.90
3037;DHT22;1528;52.550;13.408;2022-12-07T14:54:35;5.50;36.30
3037;DHT22;1528;52.550;13.408;2022-12-07T14:57:22;5.50;36.30
3037;DHT22;1528;52.550;13.408;2022-12-07T15:00:13;5.30;36.60
3037;DHT22;1528;52.550;13.408;2022-12-07T15:02:59;5.20;36.70
3037;DHT22;1528;52.550;13.408;2022-12-07T15:05:44;5.20;37.10
3037;DHT22;1528;52.550;13.408;2022-12-07T15:08:30;5.30;37.10
3037;DHT22;1528;52.550;13.408;2022-12-07T15:11:16;5.10;37.50
3037;DHT22;1528;52.550;13.408;2022-12-07T15:14:04;5.30;37.20
3037;DHT22;1528;52.550;13.408;2022-12-07T15:16:56;5.20;37.40
3037;DHT22;1528;52.550;13.408;2022-12-07T15:19:42;5.10;36.60
3037;DHT22;1528;52.550;13.408;2022-12-07T15:22:27;5.10;36.20
3037;DHT22;1528;52.550;13.408;2022-12-07T15:25:15;5.10;36.60
3037;DHT22;1528;52.550;13.408;2022-12-07T15:28:00;5.00;36.80
3037;DHT22;1528;52.550;13.408;2022-12-07T15:30:48;4.90;37.10
3037;DHT22;1528;52.550;13.408;2022-12-07T15:33:33;4.90;36.60
3037;DHT22;1528;52.550;13.408;2022-12-07T15:36:20;4.90;36.80
3037;DHT22;1528;52.550;13.408;2022-12-07T15:39:06;5.00;36.50
3037;DHT22;1528;52.550;13.408;2022-12-07T15:41:53;5.00;36.40
3037;DHT22;1528;52.550;13.408;2022-12-07T15:44:38;4.90;36.40
3037;DHT22;1528;52.550;13.408;2022-12-07T15:47:44;4.90;36.40
3037;DHT22;1528;52.550;13.408;2022-12-07T15:50:29;5.00;36.50
3037;DHT22;1528;52.550;13.408;2022-12-07T15:53:15;4.90;36.40
3037;DHT22;1528;52.550;13.408;2022-12-07T15:56:01;5.00;36.50
3037;DHT22;1528;52.550;13.408;2022-12-07T15:58:50;5.00;36.90
3037;DHT22;1528;52.550;13.408;2022-12-07T16:01:36;5.20;35.90
3037;DHT22;1528;52.550;13.408;2022-12-07T16:04:22;5.20;35.40
3037;DHT22;1528;52.550;13.408;2022-12-07T16:07:08;5.30;35.20
3037;DHT22;1528;52.550;13.408;2022-12-07T16:09:55;5.20;36.00
3037;DHT22;1528;52.550;13.408;2022-12-07T16:12:40;5.20;35.90
3037;DHT22;1528;52.550;13.408;2022-12-07T16:15:26;5.00;36.50
3037;DHT22;1528;52.550;13.408;2022-12-07T16:18:12;4.90;36.20
3037;DHT22;1528;52.550;13.408;2022-12-07T16:20:59;4.90;36.60
3037;DHT22;1528;52.550;13.408;2022-12-07T16:23:44;5.00;36.40
3037;DHT22;1528;52.550;13.408;2022-12-07T16:26:36;4.90;36.30
3037;DHT22;1528;52.550;13.408;2022-12-07T16:29:29;4.90;36.40
3037;DHT22;1528;52.550;13.408;2022-12-07T16:32:15;4.90;36.40
3037;DHT22;1528;52.550;13.408;2022-12-07T16:35:00;4.80;37.50
3037;DHT22;1528;52.550;13.408;2022-12-07T16:37:47;4.70;37.10
3037;DHT22;1528;52.550;13.408;2022-12-07T16:40:33;4.80;36.90
3037;DHT22;1528;52.550;13.408;2022-12-07T16:43:18;4.70;37.00
3037;DHT22;1528;52.550;13.408;2022-12-07T16:46:04;4.60;37.30
3037;DHT22;1528;52.550;13.408;2022-12-07T16:48:49;4.70;37.50
3037;DHT22;1528;52.550;13.408;2022-12-07T16:51:35;4.40;38.00
3037;DHT22;1528;52.550;13.408;2022-12-07T16:54:22;4.60;37.90
3037;DHT22;1528;52.550;13.408;2022-12-07T16:57:08;4.60;38.50
3037;DHT22;1528;52.550;13.408;2022-12-07T16:59:53;4.50;38.00
3037;DHT22;1528;52.550;13.408;2022-12-07T17:02:39;4.60;37.60
3037;DHT22;1528;52.550;13.408;2022-12-07T17:05:25;4.40;37.80
3037;DHT22;1528;52.550;13.408;2022-12-07T17:08:12;4.50;37.70
3037;DHT22;1528;52.550;13.408;2022-12-07T17:10:59;4.50;37.60
3037;DHT22;1528;52.550;13.408;2022-12-07T17:13:45;4.40;37.60
3037;DHT22;1528;52.550;13.408;2022-12-07T17:16:48;4.60;38.80
3037;DHT22;1528;52.550;13.408;2022-12-07T17:19:34;4.40;37.90
3037;DHT22;1528;52.550;13.408;2022-12-07T17:22:20;4.50;37.10
3037;DHT22;1528;52.550;13.408;2022-12-07T17:25:06;4.50;37.00
3037;DHT22;1528;52.550;13.408;2022-12-07T17:27:52;4.40;37.00
3037;DHT22;1528;52.550;13.408;2022-12-07T17:30:40;4.40;36.90
3037;DHT22;1528;52.550;13.408;2022-12-07T17:33:26;4.40;36.80
3037;DHT22;1528;52.550;13.408;2022-12-07T17:36:13;4.30;37.00
3037;DHT22;1528;52.550;13.408;2022-12-07T17:38:58;4.40;36.90
3037;DHT22;1528;52.550;13.408;2022-12-07T17:41:44;4.20;37.30
3037;DHT22;1528;52.550;13.408;2022-12-07T17:44:54;4.20;36.90
3037;DHT22;1528;52.550;13.408;2022-12-07T17:47:40;4.30;37.10
3037;DHT22;1528;52.550;13.408;2022-12-07T17:50:25;4.30;36.70
3037;DHT22;1528;52.550;13.408;2022-12-07T17:53:28;4.20;36.80
3037;DHT22;1528;52.550;13.408;2022-12-07T17:56:14;4.30;36.50
3037;DHT22;1528;52.550;13.408;2022-12-07T17:59:00;4.30;36.30
3037;DHT22;1528;52.550;13.408;2022-12-07T18:01:47;4.20;36.50
3037;DHT22;1528;52.550;13.408;2022-12-07T18:04:32;4.20;36.40
3037;DHT22;1528;52.550;13.408;2022-12-07T18:07:18;4.10;36.50
3037;DHT22;1528;52.550;13.408;2022-12-07T18:10:04;4.20;36.40
3037;DHT22;1528;52.550;13.408;2022-12-07T18:12:52;4.00;37.20
3037;DHT22;1528;52.550;13.408;2022-12-07T18:15:58;4.10;36.80
3037;DHT22;1528;52.550;13.408;2022-12-07T18:18:46;4.10;36.90
3037;DHT22;1528;52.550;13.408;2022-12-07T18:21:32;4.00;37.30
3037;DHT22;1528;52.550;13.408;2022-12-07T18:24:19;4.20;36.70
3037;DHT22;1528;52.550;13.408;2022-12-07T18:27:06;4.10;36.90
3037;DHT22;1528;52.550;13.408;2022-12-07T18:29:51;4.10;36.80